Airfield :
LOGIN :

Register | Disclaimer

   EN    FR    IT 

 










Legend :    VFR   Marginal VFR   IFR   Intensive IFR   Very Intensive IFR
Visi :
Ceiling :
>= 8 km
>= 3000ft
5 to 8 km
1000 to 3000 ft
1500m to 5 km
500 to 1000 ft
800 to 1500m
200 to 500 ft
< 800m
< 200 ft
Symbols :   Thunderstorms  Fog  Heavy snow  Heavy precipitations  Wind > 20 kt
SIGMETs :     Misc.  Thunderstorms  Icing  Turbulence  Mountain Waves  Volcanic Ashes







- Airport Elevation : 290 ft
- IATA code : OSI


LDOS - Osijek

CURRENT METAR :
  • 120630Z VRB06KT 9999 SCT030 02/M00 Q1018

EXPIRED METARs :
  • 120600Z 20006KT 9999 SCT037 02/M00 Q1018
  • 120530Z 23007KT 9999 SCT037 02/M01 Q1017
  • 120500Z 22007KT 9999 FEW037 02/M01 Q1017
  • 120430Z 24006KT CAVOK 03/M01 Q1017
  • 120400Z 28007KT CAVOK 03/M01 Q1017

TAF TAF LDOS
Valid from the 12 at 06:00 until the 13 at 06:00 UTC


120525Z 1206/1306 30008KT 9999 BKN030 TX06/1213Z TNM03/1305Z
BECMG 1212/1214 30005KT
PROB30
TEMPO 1212/1218 4000 -SN
BECMG 1222/1300 2000 BR
PROB30 1300/1306 0500 FZFG VV001
No reported NOTAMs for that airfield.



MET'MAP, your aeronautical weather chart ! - Copyright ORBIFLY December 2007 - Disclaimer

ORBIFLY MET'MAP TEAM :

Programming & Development : Alexandra Zaïnal
Concept & Development : Baudouin d'Aumeries
Co-Development & Prog : Marc-Olivier Méhu
Technical & hardware support : Manuel Goepfert

Contact : metmap@orbifly.com




SOURCES & CREDITS :

   NOAA